Time;durP1;ratioP1;P1;durP2;ratioP2;P2;SDS_P1;SDS_P2;PMS_P1;PMS_P2;Temp;Humidity;BMP_temperature;BMP_pressure;BME280_temperature;BME280_humidity;BME280_pressure;Samples;Min_cycle;Max_cycle;Signal;HPM_P1;HPM_P2
2021/11/29 00:00:01;;;;;;;3.85;1.23;;;;;;;;;;5030128;28;20385;-41
2021/11/29 00:02:28;;;;;;;5.90;1.08;;;;;;;;;;5029502;28;20461;-44
2021/11/29 00:04:55;;;;;;;4.25;1.30;;;;;;;;;;5028540;28;20071;-44
2021/11/29 00:07:22;;;;;;;3.92;1.58;;;;;;;;;;5028929;28;20448;-45
2021/11/29 00:09:49;;;;;;;3.90;1.13;;;;;;;;;;5026937;28;20045;-48
2021/11/29 00:12:16;;;;;;;20.73;1.98;;;;;;;;;;5027524;28;20025;-43
2021/11/29 00:14:43;;;;;;;7.95;1.40;;;;;;;;;;5017287;28;20050;-40
2021/11/29 00:17:10;;;;;;;7.72;1.60;;;;;;;;;;5018184;28;20025;-42
2021/11/29 00:19:37;;;;;;;9.43;1.50;;;;;;;;;;5022255;28;20026;-41
2021/11/29 00:22:04;;;;;;;15.23;1.67;;;;;;;;;;5019239;28;20014;-42
2021/11/29 00:24:31;;;;;;;9.15;1.80;;;;;;;;;;5012416;28;20033;-42
2021/11/29 00:26:58;;;;;;;14.98;2.90;;;;;;;;;;5019673;28;20041;-43
2021/11/29 00:29:25;;;;;;;18.42;2.45;;;;;;;;;;4999123;28;20438;-41
2021/11/29 00:31:52;;;;;;;16.30;2.45;;;;;;;;;;5018049;28;20097;-39
2021/11/29 00:34:21;;;;;;;12.32;2.20;;;;;;;;;;5015314;28;20065;-38
2021/11/29 00:36:48;;;;;;;19.48;2.17;;;;;;;;;;5015359;28;20030;-40
2021/11/29 00:39:17;;;;;;;18.08;3.45;;;;;;;;;;5020871;28;20042;-40
2021/11/29 00:41:44;;;;;;;15.75;3.20;;;;;;;;;;5009671;28;20099;-41
2021/11/29 00:44:12;;;;;;;15.18;2.03;;;;;;;;;;4994429;28;20064;-38
2021/11/29 00:46:39;;;;;;;11.27;2.60;;;;;;;;;;5011992;28;20045;-39
2021/11/29 00:49:06;;;;;;;22.33;3.15;;;;;;;;;;5019972;28;20024;-38
2021/11/29 00:51:34;;;;;;;16.60;2.97;;;;;;;;;;4995979;28;20033;-37
2021/11/29 00:54:02;;;;;;;25.05;3.50;;;;;;;;;;4992055;28;20058;-39
2021/11/29 00:56:30;;;;;;;22.00;3.53;;;;;;;;;;4996452;28;20022;-39
2021/11/29 00:58:58;;;;;;;18.10;3.47;;;;;;;;;;5019875;28;20034;-38
2021/11/29 01:01:26;;;;;;;21.45;4.20;;;;;;;;;;5010012;28;20033;-38
2021/11/29 01:03:53;;;;;;;15.05;3.78;;;;;;;;;;5003210;28;20033;-43
2021/11/29 01:06:21;;;;;;;18.55;3.70;;;;;;;;;;5014173;28;20033;-41
2021/11/29 01:08:48;;;;;;;27.20;4.68;;;;;;;;;;5020424;28;20112;-40
2021/11/29 01:11:16;;;;;;;25.48;3.95;;;;;;;;;;5020349;28;20109;-38
2021/11/29 01:13:44;;;;;;;19.30;3.90;;;;;;;;;;5018889;28;20022;-39
2021/11/29 01:16:12;;;;;;;26.48;4.75;;;;;;;;;;5002790;28;20076;-39
2021/11/29 01:18:39;;;;;;;26.20;4.47;;;;;;;;;;5002085;28;20026;-43
2021/11/29 01:21:06;;;;;;;19.52;4.13;;;;;;;;;;5017906;28;20025;-40
2021/11/29 01:23:34;;;;;;;18.63;4.30;;;;;;;;;;5018560;28;20096;-38
2021/11/29 01:26:01;;;;;;;21.50;4.72;;;;;;;;;;5009502;28;20428;-40
2021/11/29 01:28:28;;;;;;;22.77;4.57;;;;;;;;;;5019350;28;20060;-40
2021/11/29 01:30:55;;;;;;;29.77;4.90;;;;;;;;;;4999816;28;20595;-40
2021/11/29 01:33:22;;;;;;;33.25;4.93;;;;;;;;;;5010356;28;20112;-39
2021/11/29 01:35:49;;;;;;;23.10;4.75;;;;;;;;;;5018457;28;20381;-40
2021/11/29 01:38:16;;;;;;;22.00;4.47;;;;;;;;;;5002390;28;20022;-38
2021/11/29 01:40:43;;;;;;;27.58;5.80;;;;;;;;;;5019695;28;20497;-40
2021/11/29 01:43:16;;;;;;;30.27;7.30;;;;;;;;;;5019995;28;20105;-41
2021/11/29 01:45:48;;;;;;;29.90;9.05;;;;;;;;;;5016133;28;20048;-42
2021/11/29 01:48:15;;;;;;;40.72;12.50;;;;;;;;;;5013277;28;20026;-40
2021/11/29 01:50:44;;;;;;;54.83;19.23;;;;;;;;;;5010718;28;20101;-39
2021/11/29 01:53:12;;;;;;;65.50;24.60;;;;;;;;;;5010019;28;20096;-43
2021/11/29 01:55:40;;;;;;;73.35;28.30;;;;;;;;;;5009833;28;20030;-39
2021/11/29 01:58:12;;;;;;;81.28;25.83;;;;;;;;;;4996825;28;20104;-40
2021/11/29 02:00:46;;;;;;;56.80;19.65;;;;;;;;;;5012306;28;20034;-37
2021/11/29 02:03:15;;;;;;;50.60;12.35;;;;;;;;;;5013114;28;20084;-37
2021/11/29 02:05:42;;;;;;;43.65;11.82;;;;;;;;;;5011777;28;20021;-46
2021/11/29 02:08:10;;;;;;;49.60;17.33;;;;;;;;;;5020185;28;20393;-39
2021/11/29 02:10:37;;;;;;;47.33;17.05;;;;;;;;;;5019769;28;20057;-41
2021/11/29 02:13:05;;;;;;;50.05;15.50;;;;;;;;;;5016339;28;20021;-36
2021/11/29 02:15:33;;;;;;;53.50;20.00;;;;;;;;;;5012685;28;20026;-36
2021/11/29 02:18:01;;;;;;;48.15;20.80;;;;;;;;;;5016234;28;20103;-39
2021/11/29 02:20:36;;;;;;;71.32;19.48;;;;;;;;;;5030520;28;20060;-38
2021/11/29 02:23:04;;;;;;;57.47;20.48;;;;;;;;;;5029956;28;20088;-37
2021/11/29 02:25:31;;;;;;;55.10;19.55;;;;;;;;;;5028787;28;20575;-37
2021/11/29 02:27:59;;;;;;;51.75;19.67;;;;;;;;;;5030732;28;20032;-37
2021/11/29 02:30:27;;;;;;;50.88;19.05;;;;;;;;;;5029892;28;20076;-37
2021/11/29 02:32:56;;;;;;;50.95;18.90;;;;;;;;;;5029799;28;20779;-37
2021/11/29 02:35:23;;;;;;;54.13;18.10;;;;;;;;;;5026987;28;20060;-37
2021/11/29 02:37:52;;;;;;;43.15;16.40;;;;;;;;;;5012616;28;20639;-37
2021/11/29 02:40:19;;;;;;;50.00;17.05;;;;;;;;;;5030016;28;20084;-40
2021/11/29 02:42:46;;;;;;;44.30;15.55;;;;;;;;;;5028975;28;20018;-39
2021/11/29 02:45:13;;;;;;;45.40;16.25;;;;;;;;;;5028614;28;20013;-43
2021/11/29 02:47:40;;;;;;;50.05;15.50;;;;;;;;;;5029268;28;20033;-42
2021/11/29 02:50:08;;;;;;;39.35;15.05;;;;;;;;;;5031430;28;20024;-41
2021/11/29 02:52:35;;;;;;;35.33;14.60;;;;;;;;;;5029184;28;20036;-44
2021/11/29 02:55:03;;;;;;;34.78;13.68;;;;;;;;;;5030847;28;20546;-41
2021/11/29 02:57:31;;;;;;;36.60;14.55;;;;;;;;;;5029655;28;20534;-40
2021/11/29 02:59:58;;;;;;;36.08;14.23;;;;;;;;;;5023340;28;20022;-43
2021/11/29 03:02:26;;;;;;;38.60;14.55;;;;;;;;;;5010987;28;21539;-39
2021/11/29 03:04:53;;;;;;;38.90;14.65;;;;;;;;;;5009936;28;20046;-39
2021/11/29 03:07:22;;;;;;;37.90;13.38;;;;;;;;;;5011090;28;20489;-40
2021/11/29 03:09:49;;;;;;;41.55;12.80;;;;;;;;;;5011114;28;20025;-41
2021/11/29 03:12:17;;;;;;;33.38;13.13;;;;;;;;;;5010930;28;20024;-44
2021/11/29 03:14:44;;;;;;;35.95;12.93;;;;;;;;;;5010852;28;20022;-43
2021/11/29 03:17:11;;;;;;;32.83;12.50;;;;;;;;;;5009863;28;20022;-42
2021/11/29 03:19:40;;;;;;;32.17;12.30;;;;;;;;;;5011046;28;20477;-42
2021/11/29 03:22:09;;;;;;;31.15;12.40;;;;;;;;;;5010122;28;20033;-40
2021/11/29 03:24:37;;;;;;;37.30;11.85;;;;;;;;;;5010109;28;20080;-40
2021/11/29 03:27:04;;;;;;;33.22;11.70;;;;;;;;;;5026866;28;20040;-41
2021/11/29 03:29:31;;;;;;;25.90;11.02;;;;;;;;;;5030783;28;20388;-44
2021/11/29 03:32:00;;;;;;;31.80;10.00;;;;;;;;;;5030841;28;20487;-41
2021/11/29 03:34:28;;;;;;;25.73;10.77;;;;;;;;;;5031057;28;20033;-40
2021/11/29 03:36:55;;;;;;;29.67;10.68;;;;;;;;;;5030322;28;20029;-43
2021/11/29 03:39:27;;;;;;;29.35;10.88;;;;;;;;;;5030398;28;20037;-46
2021/11/29 03:41:56;;;;;;;32.17;10.32;;;;;;;;;;5031006;28;20029;-39
2021/11/29 03:44:23;;;;;;;26.27;9.70;;;;;;;;;;5022912;28;20440;-43
2021/11/29 03:46:51;;;;;;;29.70;9.95;;;;;;;;;;5015642;28;20579;-48
2021/11/29 03:49:18;;;;;;;27.33;9.57;;;;;;;;;;5030933;28;20036;-51
2021/11/29 03:51:46;;;;;;;26.63;9.75;;;;;;;;;;5033711;28;20108;-41
2021/11/29 03:54:13;;;;;;;23.35;9.27;;;;;;;;;;5034147;28;20411;-46
2021/11/29 03:56:41;;;;;;;23.25;9.55;;;;;;;;;;5033501;28;20045;-46
2021/11/29 03:59:08;;;;;;;20.50;8.40;;;;;;;;;;5034167;28;20021;-48
2021/11/29 04:01:35;;;;;;;22.58;8.10;;;;;;;;;;5034062;28;20029;-40
2021/11/29 04:04:02;;;;;;;24.58;7.82;;;;;;;;;;5033675;28;20029;-43
2021/11/29 04:06:29;;;;;;;20.08;8.20;;;;;;;;;;5033360;28;20037;-40
2021/11/29 04:08:56;;;;;;;21.85;8.40;;;;;;;;;;5033685;28;20032;-44
2021/11/29 04:11:24;;;;;;;21.15;8.45;;;;;;;;;;5034189;28;20025;-45
2021/11/29 04:13:51;;;;;;;19.95;7.70;;;;;;;;;;5015535;28;20116;-47
2021/11/29 04:16:18;;;;;;;25.13;9.18;;;;;;;;;;5033256;28;20025;-43
2021/11/29 04:18:45;;;;;;;21.65;8.27;;;;;;;;;;5033501;28;20076;-41
2021/11/29 04:21:14;;;;;;;20.15;7.55;;;;;;;;;;5034208;28;20025;-46
2021/11/29 04:23:45;;;;;;;17.15;7.32;;;;;;;;;;5033447;28;20032;-39
2021/11/29 04:26:15;;;;;;;19.97;7.13;;;;;;;;;;5033141;28;20144;-39
2021/11/29 04:28:43;;;;;;;18.88;7.15;;;;;;;;;;5033117;28;20393;-43
2021/11/29 04:31:10;;;;;;;16.48;6.97;;;;;;;;;;5033813;28;20101;-46
2021/11/29 04:33:37;;;;;;;20.05;7.05;;;;;;;;;;5033303;28;20025;-41
2021/11/29 04:36:04;;;;;;;20.27;7.10;;;;;;;;;;5033322;28;20032;-41
2021/11/29 04:38:31;;;;;;;20.10;6.50;;;;;;;;;;5014463;28;20029;-41
2021/11/29 04:40:58;;;;;;;21.50;6.90;;;;;;;;;;5015527;28;20145;-40
2021/11/29 04:43:25;;;;;;;20.95;6.93;;;;;;;;;;5033210;28;20112;-39
2021/11/29 04:45:52;;;;;;;19.52;6.70;;;;;;;;;;5032864;28;20033;-44
2021/11/29 04:48:19;;;;;;;18.05;6.15;;;;;;;;;;5032982;28;20025;-40
2021/11/29 04:50:46;;;;;;;19.50;6.10;;;;;;;;;;5033005;28;20190;-39
2021/11/29 04:53:13;;;;;;;20.25;6.50;;;;;;;;;;5033555;28;20376;-47
2021/11/29 04:55:40;;;;;;;18.23;6.22;;;;;;;;;;5032381;28;20022;-40
2021/11/29 04:58:07;;;;;;;13.88;5.72;;;;;;;;;;5032413;28;20109;-42
2021/11/29 05:00:34;;;;;;;14.93;5.97;;;;;;;;;;5032347;28;20041;-40
2021/11/29 05:03:01;;;;;;;18.52;6.20;;;;;;;;;;5032501;28;20029;-40
2021/11/29 05:05:28;;;;;;;15.27;5.38;;;;;;;;;;5032312;28;20029;-42
2021/11/29 05:07:55;;;;;;;12.90;5.43;;;;;;;;;;5032651;28;20425;-40
2021/11/29 05:10:22;;;;;;;16.33;5.88;;;;;;;;;;5032474;28;20025;-39
2021/11/29 05:12:49;;;;;;;20.20;6.20;;;;;;;;;;5033133;28;20048;-39
2021/11/29 05:15:16;;;;;;;14.13;5.20;;;;;;;;;;5032507;28;20021;-41
2021/11/29 05:17:43;;;;;;;13.98;5.65;;;;;;;;;;5032346;28;20061;-41
2021/11/29 05:20:10;;;;;;;13.02;5.20;;;;;;;;;;5032235;28;20053;-38
2021/11/29 05:22:37;;;;;;;14.18;5.43;;;;;;;;;;5033183;28;20491;-39
2021/11/29 05:25:04;;;;;;;13.32;5.43;;;;;;;;;;5032104;28;20021;-40
2021/11/29 05:27:31;;;;;;;12.93;5.10;;;;;;;;;;5032270;28;20091;-38
2021/11/29 05:29:58;;;;;;;14.52;4.78;;;;;;;;;;5032783;28;20029;-41
2021/11/29 05:32:25;;;;;;;13.68;5.68;;;;;;;;;;5032158;28;20025;-42
2021/11/29 05:34:52;;;;;;;14.25;5.25;;;;;;;;;;5032555;28;20384;-38
2021/11/29 05:37:23;;;;;;;13.45;5.53;;;;;;;;;;5031920;28;20112;-41
2021/11/29 05:39:51;;;;;;;12.73;4.95;;;;;;;;;;5031597;28;20076;-39
2021/11/29 05:42:18;;;;;;;13.88;4.72;;;;;;;;;;5031931;28;20021;-42
2021/11/29 05:44:49;;;;;;;12.57;4.97;;;;;;;;;;5031956;28;20432;-40
2021/11/29 05:47:16;;;;;;;12.48;4.55;;;;;;;;;;5023254;28;20045;-43
2021/11/29 05:49:43;;;;;;;18.17;4.93;;;;;;;;;;5032174;28;20025;-39
2021/11/29 05:52:10;;;;;;;11.52;4.72;;;;;;;;;;5031698;28;20029;-39
2021/11/29 05:54:37;;;;;;;12.57;4.85;;;;;;;;;;5032471;28;20028;-39
2021/11/29 05:57:04;;;;;;;13.68;4.95;;;;;;;;;;5031224;28;20026;-40
2021/11/29 05:59:31;;;;;;;10.77;4.32;;;;;;;;;;5031357;28;20030;-39
2021/11/29 06:01:58;;;;;;;12.50;4.55;;;;;;;;;;5031696;28;20143;-43
2021/11/29 06:04:25;;;;;;;13.63;4.47;;;;;;;;;;5031622;28;20065;-39
2021/11/29 06:06:52;;;;;;;11.35;4.28;;;;;;;;;;5031043;28;20527;-41
2021/11/29 06:09:19;;;;;;;11.32;4.53;;;;;;;;;;5031147;28;20637;-39
2021/11/29 06:11:46;;;;;;;9.85;4.10;;;;;;;;;;5031780;28;20034;-40
2021/11/29 06:14:13;;;;;;;9.20;4.07;;;;;;;;;;5031038;28;20107;-41
2021/11/29 06:16:40;;;;;;;10.70;4.18;;;;;;;;;;5014018;28;20499;-39
2021/11/29 06:19:07;;;;;;;10.32;4.18;;;;;;;;;;5030233;28;20040;-41
2021/11/29 06:21:34;;;;;;;11.85;4.80;;;;;;;;;;5031697;28;20021;-42
2021/11/29 06:24:00;;;;;;;9.55;3.80;;;;;;;;;;5031010;28;20370;-46
2021/11/29 06:26:27;;;;;;;10.13;4.13;;;;;;;;;;5031168;28;20072;-50
2021/11/29 06:28:54;;;;;;;10.40;3.88;;;;;;;;;;5030366;28;20528;-44
2021/11/29 06:31:21;;;;;;;6.70;3.50;;;;;;;;;;5031662;28;20211;-45
2021/11/29 06:33:48;;;;;;;9.18;4.13;;;;;;;;;;5031041;28;20024;-46
2021/11/29 06:36:15;;;;;;;9.32;3.65;;;;;;;;;;5031066;28;20033;-45
2021/11/29 06:38:42;;;;;;;8.77;3.67;;;;;;;;;;5030626;28;20029;-44
2021/11/29 06:41:09;;;;;;;9.27;3.70;;;;;;;;;;5009478;28;20469;-44
2021/11/29 06:43:36;;;;;;;7.88;3.65;;;;;;;;;;5011097;28;20025;-45
2021/11/29 06:46:04;;;;;;;8.43;3.53;;;;;;;;;;5011382;28;20030;-44
2021/11/29 06:48:31;;;;;;;11.50;3.95;;;;;;;;;;5010549;28;20029;-41
2021/11/29 06:50:58;;;;;;;8.88;3.88;;;;;;;;;;5011519;28;20034;-45
2021/11/29 06:53:25;;;;;;;8.88;3.95;;;;;;;;;;5011419;28;20044;-43
2021/11/29 06:55:54;;;;;;;7.90;3.70;;;;;;;;;;5010494;28;20026;-41
2021/11/29 06:58:21;;;;;;;8.45;3.58;;;;;;;;;;5010966;28;20057;-43
2021/11/29 07:00:48;;;;;;;6.32;3.17;;;;;;;;;;5010130;28;20021;-39
2021/11/29 07:03:16;;;;;;;7.70;3.22;;;;;;;;;;5011356;28;20049;-43
2021/11/29 07:05:43;;;;;;;7.95;3.35;;;;;;;;;;5010544;28;20029;-42
2021/11/29 07:08:10;;;;;;;6.47;3.05;;;;;;;;;;5010772;28;20068;-41
2021/11/29 07:10:40;;;;;;;6.00;3.15;;;;;;;;;;5011069;28;20097;-41
2021/11/29 07:13:08;;;;;;;7.30;3.00;;;;;;;;;;5011309;28;20045;-42
2021/11/29 07:15:35;;;;;;;6.97;3.25;;;;;;;;;;5010645;28;20030;-43
2021/11/29 07:18:03;;;;;;;6.55;3.08;;;;;;;;;;5010914;28;20018;-43
2021/11/29 07:20:30;;;;;;;7.18;3.15;;;;;;;;;;5009852;28;20036;-41
2021/11/29 07:22:57;;;;;;;8.40;2.95;;;;;;;;;;5010865;28;20030;-42
2021/11/29 07:25:24;;;;;;;7.72;3.40;;;;;;;;;;5009899;28;20036;-41
2021/11/29 07:27:51;;;;;;;7.70;3.17;;;;;;;;;;5009903;28;20414;-41
2021/11/29 07:30:20;;;;;;;7.05;3.05;;;;;;;;;;5010401;28;20030;-46
2021/11/29 07:32:47;;;;;;;6.13;3.28;;;;;;;;;;5011173;28;20025;-40
2021/11/29 07:35:14;;;;;;;6.55;2.95;;;;;;;;;;5010594;28;20025;-40
2021/11/29 07:37:44;;;;;;;7.57;2.72;;;;;;;;;;5010310;28;20134;-42
2021/11/29 07:40:11;;;;;;;7.00;3.00;;;;;;;;;;5021388;28;20049;-42
2021/11/29 07:42:38;;;;;;;8.45;2.88;;;;;;;;;;5012324;28;20488;-45
2021/11/29 07:45:06;;;;;;;7.60;3.05;;;;;;;;;;5030146;28;20431;-39
2021/11/29 07:47:33;;;;;;;7.22;3.03;;;;;;;;;;5029728;28;20033;-46
2021/11/29 07:50:00;;;;;;;8.57;2.88;;;;;;;;;;5029801;28;20020;-39
2021/11/29 07:52:27;;;;;;;5.55;2.85;;;;;;;;;;5029759;28;20376;-40
2021/11/29 07:54:54;;;;;;;7.03;2.80;;;;;;;;;;5030451;28;20014;-40
2021/11/29 07:57:21;;;;;;;6.45;2.80;;;;;;;;;;5012180;28;20025;-39
2021/11/29 07:59:48;;;;;;;4.63;2.67;;;;;;;;;;5030274;28;20031;-38
2021/11/29 08:02:15;;;;;;;5.95;2.80;;;;;;;;;;5029516;28;20127;-40
2021/11/29 08:04:42;;;;;;;5.85;2.78;;;;;;;;;;5012954;28;20033;-40
2021/11/29 08:07:09;;;;;;;5.15;2.83;;;;;;;;;;5029386;28;20701;-39
2021/11/29 08:09:36;;;;;;;5.88;2.65;;;;;;;;;;5030340;28;20094;-41
2021/11/29 08:12:03;;;;;;;5.10;2.65;;;;;;;;;;5029966;28;20033;-42
2021/11/29 08:14:30;;;;;;;4.50;2.40;;;;;;;;;;5030188;28;20022;-40
2021/11/29 08:16:57;;;;;;;6.45;2.53;;;;;;;;;;5011917;28;20049;-39
2021/11/29 08:19:24;;;;;;;7.30;2.88;;;;;;;;;;5030111;28;20376;-39
2021/11/29 08:21:51;;;;;;;5.78;2.70;;;;;;;;;;5029298;28;20547;-42
2021/11/29 08:24:18;;;;;;;6.05;2.78;;;;;;;;;;5029752;28;20025;-39
2021/11/29 08:26:45;;;;;;;8.60;2.70;;;;;;;;;;5029814;28;20045;-39
2021/11/29 08:29:12;;;;;;;5.03;2.60;;;;;;;;;;5029416;28;20060;-38
2021/11/29 08:31:39;;;;;;;5.43;2.22;;;;;;;;;;5029279;28;20026;-39
2021/11/29 08:34:06;;;;;;;5.40;2.50;;;;;;;;;;5029483;28;20061;-39
2021/11/29 08:36:34;;;;;;;4.88;2.50;;;;;;;;;;5031937;28;20028;-39
2021/11/29 08:39:03;;;;;;;4.50;2.22;;;;;;;;;;5032786;28;20021;-40
2021/11/29 08:41:31;;;;;;;4.38;2.33;;;;;;;;;;5032909;28;20041;-39
2021/11/29 08:43:58;;;;;;;5.38;2.58;;;;;;;;;;5033112;28;20030;-39
2021/11/29 08:46:25;;;;;;;7.53;2.55;;;;;;;;;;5033155;28;20041;-39
2021/11/29 08:48:52;;;;;;;3.97;2.33;;;;;;;;;;5032801;28;20022;-41
2021/11/29 08:51:19;;;;;;;5.38;2.70;;;;;;;;;;5032744;28;20025;-42
2021/11/29 08:53:46;;;;;;;4.80;2.70;;;;;;;;;;5032785;28;20032;-41
2021/11/29 08:56:13;;;;;;;5.07;2.20;;;;;;;;;;5033263;28;20036;-40
2021/11/29 08:58:40;;;;;;;4.00;2.42;;;;;;;;;;5032213;28;20029;-42
2021/11/29 09:01:07;;;;;;;4.25;2.13;;;;;;;;;;5015372;28;20025;-42
2021/11/29 09:03:34;;;;;;;5.22;2.38;;;;;;;;;;5032794;28;20060;-44
2021/11/29 09:06:01;;;;;;;5.57;2.47;;;;;;;;;;5032460;28;20572;-39
2021/11/29 09:08:29;;;;;;;4.35;2.33;;;;;;;;;;5033108;28;20104;-49
2021/11/29 09:10:56;;;;;;;5.05;1.90;;;;;;;;;;5032349;28;20030;-49
2021/11/29 09:13:23;;;;;;;4.45;1.90;;;;;;;;;;5033113;28;20029;-45
2021/11/29 09:15:50;;;;;;;4.07;2.30;;;;;;;;;;5032390;28;20084;-43
2021/11/29 09:18:16;;;;;;;4.43;1.98;;;;;;;;;;5033417;28;20105;-47
2021/11/29 09:20:44;;;;;;;4.72;2.15;;;;;;;;;;5031740;28;20025;-43
2021/11/29 09:23:12;;;;;;;5.00;2.17;;;;;;;;;;5032239;28;20033;-46
2021/11/29 09:25:43;;;;;;;4.07;1.90;;;;;;;;;;5032318;28;20512;-46
2021/11/29 09:28:11;;;;;;;5.15;2.50;;;;;;;;;;5032423;28;20478;-46
2021/11/29 09:30:38;;;;;;;4.57;2.20;;;;;;;;;;5031766;28;20021;-46
2021/11/29 09:33:06;;;;;;;4.72;2.20;;;;;;;;;;5032247;28;20536;-43
2021/11/29 09:35:33;;;;;;;5.65;2.17;;;;;;;;;;5032205;28;20027;-46
2021/11/29 09:38:00;;;;;;;3.63;1.90;;;;;;;;;;5031956;28;20448;-40
2021/11/29 09:40:33;;;;;;;2.92;1.88;;;;;;;;;;5031333;28;20045;-42
2021/11/29 09:42:59;;;;;;;;;;;;;;;;;;5030611;28;20060;-44
2021/11/29 09:45:27;;;;;;;5.90;2.30;;;;;;;;;;5030908;28;20003;-39
2021/11/29 09:47:54;;;;;;;3.45;1.95;;;;;;;;;;5030491;28;20018;-41
2021/11/29 09:50:21;;;;;;;3.92;2.03;;;;;;;;;;5030894;28;20032;-41
2021/11/29 09:52:49;;;;;;;4.97;2.15;;;;;;;;;;5029948;28;20500;-42
2021/11/29 09:55:17;;;;;;;3.97;1.80;;;;;;;;;;5031400;28;20476;-41
2021/11/29 09:57:44;;;;;;;3.65;1.90;;;;;;;;;;5031412;28;20029;-42
2021/11/29 10:00:21;;;;;;;4.13;2.08;;;;;;;;;;5031141;28;20041;-43
2021/11/29 10:02:49;;;;;;;4.60;2.05;;;;;;;;;;5029957;28;20030;-42
2021/11/29 10:05:17;;;;;;;3.70;1.65;;;;;;;;;;5030883;28;20116;-41
2021/11/29 10:07:49;;;;;;;5.60;1.38;;;;;;;;;;5031539;28;20095;-45
2021/11/29 10:10:16;;;;;;;3.10;1.52;;;;;;;;;;5031808;28;20052;-43
2021/11/29 10:12:43;;;;;;;3.92;1.65;;;;;;;;;;5031066;28;20105;-42
2021/11/29 10:15:21;;;;;;;3.53;1.55;;;;;;;;;;5031978;28;20024;-40
2021/11/29 10:17:50;;;;;;;3.00;1.60;;;;;;;;;;5031522;28;20028;-41
2021/11/29 10:20:17;;;;;;;5.35;2.00;;;;;;;;;;5031374;28;20030;-39
2021/11/29 10:23:04;;;;;;;5.70;1.83;;;;;;;;;;5030633;28;20017;-47
2021/11/29 10:25:31;;;;;;;4.85;1.90;;;;;;;;;;5031372;28;20049;-43
2021/11/29 10:27:58;;;;;;;3.63;1.80;;;;;;;;;;5031091;28;20030;-41
2021/11/29 10:30:29;;;;;;;5.82;2.25;;;;;;;;;;5031406;28;20025;-39
2021/11/29 10:32:56;;;;;;;4.18;1.63;;;;;;;;;;5030662;28;20030;-39
2021/11/29 10:35:42;;;;;;;4.20;1.85;;;;;;;;;;5013429;28;20598;-39
2021/11/29 10:38:10;;;;;;;4.25;1.83;;;;;;;;;;5030181;28;20120;-40
2021/11/29 10:40:37;;;;;;;3.95;1.70;;;;;;;;;;5031054;28;20045;-40
2021/11/29 10:43:07;;;;;;;4.25;1.70;;;;;;;;;;5030904;28;20033;-38
2021/11/29 10:45:41;;;;;;;4.63;1.60;;;;;;;;;;5030798;28;20086;-40
2021/11/29 10:48:23;;;;;;;3.38;1.58;;;;;;;;;;5030724;28;20117;-38
2021/11/29 10:51:07;;;;;;;3.00;1.20;;;;;;;;;;5031264;28;20021;-39
2021/11/29 10:53:44;;;;;;;4.93;1.48;;;;;;;;;;5030003;28;20029;-38
2021/11/29 10:56:11;;;;;;;3.90;1.70;;;;;;;;;;5030982;28;20025;-38
2021/11/29 10:58:46;;;;;;;3.30;1.50;;;;;;;;;;5029752;28;20143;-38
2021/11/29 11:01:15;;;;;;;4.25;1.55;;;;;;;;;;5030428;28;20097;-39
2021/11/29 11:03:55;;;;;;;4.72;1.52;;;;;;;;;;5030101;28;20385;-38
2021/11/29 11:06:26;;;;;;;6.18;1.83;;;;;;;;;;5030889;28;20480;-39
2021/11/29 11:08:54;;;;;;;4.00;1.63;;;;;;;;;;5030824;28;20021;-40
2021/11/29 11:11:34;;;;;;;3.17;1.25;;;;;;;;;;5030397;28;20064;-39
2021/11/29 11:14:06;;;;;;;3.67;1.50;;;;;;;;;;5029840;28;20114;-40
2021/11/29 11:16:49;;;;;;;7.35;1.33;;;;;;;;;;5030718;28;20055;-41
2021/11/29 11:19:27;;;;;;;5.10;1.27;;;;;;;;;;5028057;28;20025;-45
2021/11/29 11:21:56;;;;;;;4.65;1.25;;;;;;;;;;5010903;28;20014;-39
2021/11/29 11:24:26;;;;;;;4.75;1.63;;;;;;;;;;5044565;28;20107;-39
2021/11/29 11:26:58;;;;;;;8.82;1.20;;;;;;;;;;5048715;28;20119;-40
2021/11/29 11:29:42;;;;;;;5.40;0.80;;;;;;;;;;5049748;28;20025;-38
2021/11/29 11:32:14;;;;;;;7.43;1.23;;;;;;;;;;5048127;28;20105;-44
2021/11/29 11:34:43;;;;;;;4.13;1.10;;;;;;;;;;5048714;28;20025;-40
2021/11/29 11:37:10;;;;;;;8.05;0.85;;;;;;;;;;5032862;28;20025;-41
2021/11/29 11:39:39;;;;;;;8.10;0.80;;;;;;;;;;5028604;28;20057;-39
2021/11/29 11:42:07;;;;;;;6.85;0.98;;;;;;;;;;5028905;28;20516;-43
2021/11/29 11:44:37;;;;;;;6.70;0.93;;;;;;;;;;5026447;28;20523;-42
2021/11/29 11:47:05;;;;;;;6.35;0.85;;;;;;;;;;5028932;28;20447;-41
2021/11/29 11:49:34;;;;;;;6.95;0.98;;;;;;;;;;5028757;28;20032;-39
2021/11/29 11:52:01;;;;;;;8.15;0.98;;;;;;;;;;5027273;28;20030;-43
2021/11/29 11:54:28;;;;;;;9.73;1.10;;;;;;;;;;5027166;28;20033;-41
2021/11/29 11:56:55;;;;;;;9.15;0.90;;;;;;;;;;5007501;28;20036;-40
2021/11/29 11:59:25;;;;;;;13.18;1.08;;;;;;;;;;5019336;28;20037;-41
2021/11/29 12:01:52;;;;;;;8.18;1.05;;;;;;;;;;5028132;28;20024;-44
2021/11/29 12:04:20;;;;;;;15.48;1.00;;;;;;;;;;5029403;28;20025;-41
2021/11/29 12:06:49;;;;;;;10.68;1.30;;;;;;;;;;5026544;28;20464;-49
2021/11/29 12:09:16;;;;;;;11.10;0.82;;;;;;;;;;5028567;28;20056;-47
2021/11/29 12:11:45;;;;;;;6.30;0.65;;;;;;;;;;5028962;28;20069;-47
2021/11/29 12:14:18;;;;;;;10.88;1.00;;;;;;;;;;5040179;28;20108;-46
2021/11/29 12:16:52;;;;;;;4.00;0.80;;;;;;;;;;5032620;28;20034;-45
2021/11/29 12:19:26;;;;;;;6.22;0.80;;;;;;;;;;5032905;28;20025;-47
2021/11/29 12:21:57;;;;;;;2.92;0.70;;;;;;;;;;5031885;28;20026;-48
2021/11/29 12:24:36;;;;;;;4.75;1.00;;;;;;;;;;5032019;28;20132;-42
2021/11/29 12:27:06;;;;;;;5.75;0.90;;;;;;;;;;5031471;28;20034;-43
2021/11/29 12:29:33;;;;;;;5.78;0.85;;;;;;;;;;5032669;28;20048;-44
2021/11/29 12:32:03;;;;;;;8.55;1.42;;;;;;;;;;5032117;28;20035;-52
2021/11/29 12:34:49;;;;;;;5.75;1.08;;;;;;;;;;5031977;28;20052;-55
2021/11/29 12:37:20;;;;;;;5.85;1.25;;;;;;;;;;5032002;28;20025;-47
2021/11/29 12:39:50;;;;;;;5.53;0.93;;;;;;;;;;5031978;28;20132;-54
2021/11/29 12:42:23;;;;;;;5.60;0.70;;;;;;;;;;5031104;28;20030;-52
2021/11/29 12:45:23;;;;;;;3.70;0.88;;;;;;;;;;5029088;28;20432;-51
2021/11/29 12:47:52;;;;;;;4.25;0.90;;;;;;;;;;5019699;28;20417;-48
2021/11/29 12:50:30;;;;;;;3.00;0.90;;;;;;;;;;5027724;28;20017;-47
2021/11/29 12:53:18;;;;;;;6.50;0.88;;;;;;;;;;5030339;28;20034;-40
2021/11/29 12:55:50;;;;;;;5.40;1.10;;;;;;;;;;5011468;28;20148;-43
2021/11/29 12:58:18;;;;;;;2.65;0.60;;;;;;;;;;5030774;28;20479;-48
2021/11/29 13:00:47;;;;;;;5.75;0.70;;;;;;;;;;5029834;28;20041;-48
2021/11/29 13:03:15;;;;;;;5.97;1.00;;;;;;;;;;5030391;28;20025;-51
2021/11/29 13:05:46;;;;;;;9.52;0.98;;;;;;;;;;5028541;28;20029;-47
2021/11/29 13:08:22;;;;;;;2.50;0.65;;;;;;;;;;5030800;28;20104;-50
2021/11/29 13:10:51;;;;;;;6.03;0.73;;;;;;;;;;5030517;28;20112;-46
2021/11/29 13:13:28;;;;;;;5.63;0.77;;;;;;;;;;5027166;28;20112;-50
2021/11/29 13:15:57;;;;;;;5.40;0.60;;;;;;;;;;5028537;28;20083;-48
2021/11/29 13:18:52;;;;;;;3.30;0.90;;;;;;;;;;5028525;28;20108;-51
2021/11/29 13:21:22;;;;;;;4.43;0.57;;;;;;;;;;5029745;28;20030;-38
2021/11/29 13:23:51;;;;;;;12.65;0.98;;;;;;;;;;5029415;28;20438;-38
2021/11/29 13:26:19;;;;;;;4.30;0.60;;;;;;;;;;5023878;28;20033;-47
2021/11/29 13:28:48;;;;;;;2.75;0.50;;;;;;;;;;5028614;28;20037;-49
2021/11/29 13:31:15;;;;;;;6.15;0.65;;;;;;;;;;5030241;28;20045;-46
2021/11/29 13:33:42;;;;;;;5.35;0.60;;;;;;;;;;5028348;28;20031;-42
2021/11/29 13:36:11;;;;;;;2.25;0.57;;;;;;;;;;5027606;28;20032;-43
2021/11/29 13:38:38;;;;;;;12.80;1.17;;;;;;;;;;5028941;28;20091;-45
2021/11/29 13:41:06;;;;;;;9.02;1.23;;;;;;;;;;5028612;28;20057;-47
2021/11/29 13:43:33;;;;;;;7.18;0.95;;;;;;;;;;5029721;28;20014;-50
2021/11/29 13:46:12;;;;;;;8.23;1.00;;;;;;;;;;5028642;28;20291;-42
2021/11/29 13:48:39;;;;;;;1.85;0.55;;;;;;;;;;5027920;28;20036;-50
2021/11/29 13:51:06;;;;;;;8.27;0.60;;;;;;;;;;5028729;28;20072;-49
2021/11/29 13:53:36;;;;;;;6.45;0.60;;;;;;;;;;5029108;28;20018;-43
2021/11/29 13:56:04;;;;;;;7.10;0.63;;;;;;;;;;5028657;28;20473;-41
2021/11/29 13:58:33;;;;;;;4.05;0.68;;;;;;;;;;5028905;28;20022;-46
2021/11/29 14:01:02;;;;;;;44.38;2.92;;;;;;;;;;5028889;28;20013;-48
2021/11/29 14:03:37;;;;;;;9.48;1.27;;;;;;;;;;5011705;28;20370;-45
2021/11/29 14:06:06;;;;;;;6.35;1.55;;;;;;;;;;5029438;28;20048;-42
2021/11/29 14:08:37;;;;;;;7.20;1.23;;;;;;;;;;5029028;28;20017;-49
2021/11/29 14:11:08;;;;;;;6.22;0.80;;;;;;;;;;5025441;28;20524;-44
2021/11/29 14:13:42;;;;;;;6.55;0.80;;;;;;;;;;5028774;28;20113;-43
2021/11/29 14:16:10;;;;;;;4.03;0.70;;;;;;;;;;5028222;28;20025;-41
2021/11/29 14:18:40;;;;;;;5.15;0.65;;;;;;;;;;5024410;28;20033;-40
2021/11/29 14:21:14;;;;;;;4.90;0.60;;;;;;;;;;5027521;28;20057;-40
2021/11/29 14:23:45;;;;;;;13.07;0.98;;;;;;;;;;5028317;28;20029;-41
2021/11/29 14:26:15;;;;;;;12.60;1.05;;;;;;;;;;5029492;28;20443;-40
2021/11/29 14:28:43;;;;;;;3.78;0.43;;;;;;;;;;5026384;28;20457;-38
2021/11/29 14:31:11;;;;;;;8.77;0.65;;;;;;;;;;5027747;28;20029;-40
2021/11/29 14:33:39;;;;;;;13.18;0.80;;;;;;;;;;5028853;28;20014;-46
2021/11/29 14:36:26;;;;;;;4.25;0.75;;;;;;;;;;5026937;28;20112;-46
2021/11/29 14:38:53;;;;;;;13.45;0.90;;;;;;;;;;5026846;28;20032;-45
2021/11/29 14:41:20;;;;;;;7.70;0.70;;;;;;;;;;5028740;28;20034;-43
2021/11/29 14:43:51;;;;;;;6.20;0.90;;;;;;;;;;5027573;28;20025;-39